Time,TemperatureF,DewpointF,PressureIn,WindDirection,WindDirectionDegrees,WindSpeedMPH,WindSpeedGustMPH,Humidity,HourlyPrecipIn,Conditions,Clouds,dailyrainin,SoftwareType,DateUTC
2013-02-14 00:00:00,31.1,29.6,29.93,WSW,247,0.0,0.0,94,0.00,,OVC055,0.00,VWS V14.01,2013-02-14 05:00:00,
2013-02-14 00:05:00,31.0,29.5,29.93,WSW,247,1.0,1.0,94,0.00,,OVC055,0.00,VWS V14.01,2013-02-14 05:05:00,
2013-02-14 00:10:00,31.2,29.7,29.93,WSW,247,0.0,1.0,94,0.00,,OVC055,0.00,VWS V14.01,2013-02-14 05:10:00,
2013-02-14 00:15:00,31.2,29.7,29.93,WSW,247,0.0,1.0,94,0.00,,OVC055,0.00,VWS V14.01,2013-02-14 05:15:00,
2013-02-14 00:20:00,31.1,29.6,29.93,WSW,247,0.0,1.0,94,0.00,,OVC055,0.00,VWS V14.01,2013-02-14 05:20:00,
2013-02-14 00:25:00,30.8,29.3,29.94,WSW,247,0.0,1.0,94,0.00,,OVC055,0.00,VWS V14.01,2013-02-14 05:25:00,
2013-02-14 00:30:00,30.6,29.1,29.94,WSW,247,0.0,0.0,94,0.00,,OVC055,0.00,VWS V14.01,2013-02-14 05:30:00,
2013-02-14 00:35:00,30.5,29.0,29.94,WSW,247,0.0,0.0,94,0.00,,OVC055,0.00,VWS V14.01,2013-02-14 05:35:00,
2013-02-14 00:40:00,30.3,29.0,29.94,WSW,247,0.0,0.0,95,0.00,,OVC055,0.00,VWS V14.01,2013-02-14 05:40:00,
2013-02-14 00:45:00,30.1,28.8,29.94,WSW,247,0.0,0.0,95,0.00,,OVC055,0.00,VWS V14.01,2013-02-14 05:45:00,
2013-02-14 00:50:00,29.9,28.6,29.94,WSW,247,0.0,1.0,95,0.00,,OVC055,0.00,VWS V14.01,2013-02-14 05:50:00,
2013-02-14 00:55:00,29.7,28.5,29.94,WSW,247,0.0,1.0,95,0.00,,OVC055,0.00,VWS V14.01,2013-02-14 05:55:00,
2013-02-14 01:00:00,29.6,28.6,29.94,WSW,247,0.0,0.0,96,0.00,,OVC055,0.00,VWS V14.01,2013-02-14 06:00:00,
2013-02-14 01:05:00,29.7,28.7,29.94,WSW,247,0.0,1.0,96,0.00,,OVC055,0.00,VWS V14.01,2013-02-14 06:05:00,
2013-02-14 01:10:00,29.6,28.6,29.94,WSW,247,0.0,1.0,96,0.00,,OVC055,0.00,VWS V14.01,2013-02-14 06:10:00,
2013-02-14 01:15:00,29.4,28.4,29.94,WSW,247,0.0,1.0,96,0.00,,OVC055,0.00,VWS V14.01,2013-02-14 06:15:00,
2013-02-14 01:20:00,29.2,28.2,29.94,WSW,247,0.0,1.0,96,0.00,,OVC055,0.00,VWS V14.01,2013-02-14 06:20:00,
2013-02-14 01:24:00,29.1,28.1,29.95,WSW,247,0.0,1.0,96,0.00,,OVC055,0.00,VWS V14.01,2013-02-14 06:24:00,
2013-02-14 01:29:00,29.0,28.0,29.95,WSW,247,0.0,0.0,96,0.00,,OVC055,0.00,VWS V14.01,2013-02-14 06:29:00,
2013-02-14 01:30:00,29.0,28.0,29.95,WSW,247,0.0,1.0,96,0.00,,OVC055,0.00,VWS V14.01,2013-02-14 06:30:00,
2013-02-14 01:34:00,29.0,28.0,29.95,WSW,247,0.0,0.0,96,0.00,,OVC055,0.00,VWS V14.01,2013-02-14 06:34:00,
2013-02-14 01:39:00,28.9,27.9,29.95,WSW,247,0.0,1.0,96,0.00,,OVC055,0.00,VWS V14.01,2013-02-14 06:39:00,
2013-02-14 01:44:00,28.9,28.2,29.95,WSW,247,0.0,1.0,97,0.00,,OVC055,0.00,VWS V14.01,2013-02-14 06:44:00,
2013-02-14 01:49:00,28.8,28.1,29.96,WSW,247,0.0,1.0,97,0.00,,OVC055,0.00,VWS V14.01,2013-02-14 06:49:00,
2013-02-14 01:54:00,28.7,28.0,29.96,WSW,247,0.0,1.0,97,0.00,,OVC055,0.00,VWS V14.01,2013-02-14 06:54:00,
2013-02-14 01:59:00,28.6,27.9,29.96,WSW,247,0.0,0.0,97,0.00,,OVC055,0.00,VWS V14.01,2013-02-14 06:59:00,
2013-02-14 02:00:00,28.7,28.0,29.96,WSW,247,0.0,1.0,97,0.00,,OVC055,0.00,VWS V14.01,2013-02-14 07:00:00,
2013-02-14 02:04:00,28.6,27.9,29.96,WSW,247,0.0,0.0,97,0.00,,OVC055,0.00,VWS V14.01,2013-02-14 07:04:00,
2013-02-14 02:09:00,28.6,27.9,29.96,WSW,247,0.0,1.0,97,0.00,,OVC055,0.00,VWS V14.01,2013-02-14 07:09:00,
2013-02-14 02:14:00,28.6,27.9,29.96,WSW,247,0.0,1.0,97,0.00,,OVC055,0.00,VWS V14.01,2013-02-14 07:14:00,
2013-02-14 02:19:00,28.5,27.8,29.96,WSW,247,0.0,1.0,97,0.00,,OVC055,0.00,VWS V14.01,2013-02-14 07:19:00,
2013-02-14 02:24:00,28.4,27.7,29.96,WSW,247,0.0,1.0,97,0.00,,OVC055,0.00,VWS V14.01,2013-02-14 07:24:00,
2013-02-14 02:29:00,28.3,27.6,29.97,WSW,247,0.0,0.0,97,0.00,,OVC055,0.00,VWS V14.01,2013-02-14 07:29:00,
2013-02-14 02:30:00,28.3,27.6,29.97,WSW,247,0.0,1.0,97,0.00,,OVC055,0.00,VWS V14.01,2013-02-14 07:30:00,
2013-02-14 02:34:00,28.2,27.5,29.97,WSW,247,0.0,0.0,97,0.00,,OVC055,0.00,VWS V14.01,2013-02-14 07:34:00,
2013-02-14 02:39:00,28.2,27.5,29.97,WSW,247,0.0,0.0,97,0.00,,OVC055,0.00,VWS V14.01,2013-02-14 07:39:00,
2013-02-14 02:44:00,28.3,27.8,29.97,WSW,247,0.0,1.0,98,0.00,,OVC055,0.00,VWS V14.01,2013-02-14 07:44:00,
2013-02-14 02:49:00,28.3,27.8,29.97,WSW,247,0.0,1.0,98,0.00,,OVC055,0.00,VWS V14.01,2013-02-14 07:49:00,
2013-02-14 02:54:00,28.3,27.8,29.97,WSW,247,0.0,1.0,98,0.00,,OVC055,0.00,VWS V14.01,2013-02-14 07:54:00,
2013-02-14 02:59:00,28.3,27.8,29.97,WSW,247,0.0,0.0,98,0.00,,OVC055,0.00,VWS V14.01,2013-02-14 07:59:00,
2013-02-14 03:00:00,28.3,27.8,29.97,WSW,247,0.0,1.0,98,0.00,,OVC055,0.00,VWS V14.01,2013-02-14 08:00:00,
2013-02-14 03:04:00,28.1,27.4,29.97,WSW,247,0.0,0.0,97,0.00,,OVC055,0.00,VWS V14.01,2013-02-14 08:04:00,
2013-02-14 03:09:00,27.9,27.2,29.97,WSW,247,0.0,0.0,97,0.00,,OVC055,0.00,VWS V14.01,2013-02-14 08:09:00,
2013-02-14 03:14:00,27.8,27.1,29.97,WSW,247,0.0,0.0,97,0.00,,OVC055,0.00,VWS V14.01,2013-02-14 08:14:00,
2013-02-14 03:19:00,27.7,27.0,29.97,WSW,247,0.0,0.0,97,0.00,,OVC055,0.00,VWS V14.01,2013-02-14 08:19:00,
2013-02-14 03:24:00,27.6,26.9,29.97,WSW,247,0.0,0.0,97,0.00,,OVC055,0.00,VWS V14.01,2013-02-14 08:24:00,
2013-02-14 03:29:00,27.5,26.8,29.97,WSW,247,0.0,0.0,97,0.00,,OVC055,0.00,VWS V14.01,2013-02-14 08:29:00,
2013-02-14 03:30:00,27.5,26.8,29.97,WSW,247,0.0,0.0,97,0.00,,OVC055,0.00,VWS V14.01,2013-02-14 08:30:00,
2013-02-14 03:34:00,27.4,26.7,29.97,WSW,247,0.0,0.0,97,0.00,,OVC055,0.00,VWS V14.01,2013-02-14 08:34:00,
2013-02-14 03:39:00,27.4,26.7,29.97,WSW,247,0.0,0.0,97,0.00,,OVC055,0.00,VWS V14.01,2013-02-14 08:39:00,
2013-02-14 03:44:00,27.4,26.7,29.97,WSW,247,0.0,0.0,97,0.00,,OVC055,0.00,VWS V14.01,2013-02-14 08:44:00,
2013-02-14 03:49:00,27.4,26.9,29.98,WSW,247,0.0,0.0,98,0.00,,OVC055,0.00,VWS V14.01,2013-02-14 08:49:00,
2013-02-14 03:54:00,27.5,27.0,29.98,WSW,247,0.0,0.0,98,0.00,,OVC055,0.00,VWS V14.01,2013-02-14 08:54:00,
2013-02-14 03:59:00,27.5,27.0,29.98,WSW,247,0.0,0.0,98,0.00,,OVC055,0.00,VWS V14.01,2013-02-14 08:59:00,
2013-02-14 04:00:00,27.5,27.0,29.98,WSW,247,0.0,0.0,98,0.00,,OVC055,0.00,VWS V14.01,2013-02-14 09:00:00,
2013-02-14 04:04:00,27.5,27.0,29.98,WSW,247,0.0,0.0,98,0.00,,OVC055,0.00,VWS V14.01,2013-02-14 09:04:00,
2013-02-14 04:09:00,27.4,26.9,29.99,WSW,247,0.0,0.0,98,0.00,,OVC055,0.00,VWS V14.01,2013-02-14 09:09:00,
2013-02-14 04:14:00,27.3,26.8,29.99,WSW,247,0.0,0.0,98,0.00,,OVC055,0.00,VWS V14.01,2013-02-14 09:14:00,
2013-02-14 04:19:00,27.1,26.4,29.99,WSW,247,0.0,0.0,97,0.00,,OVC055,0.00,VWS V14.01,2013-02-14 09:19:00,
2013-02-14 04:24:00,27.0,26.3,29.99,WSW,247,0.0,0.0,97,0.00,,OVC055,0.00,VWS V14.01,2013-02-14 09:24:00,
2013-02-14 04:29:00,26.9,26.2,29.99,WSW,247,0.0,0.0,97,0.00,,OVC055,0.00,VWS V14.01,2013-02-14 09:29:00,
2013-02-14 04:30:00,26.9,26.2,29.99,WSW,247,0.0,0.0,97,0.00,,OVC055,0.00,VWS V14.01,2013-02-14 09:30:00,
2013-02-14 04:34:00,26.8,26.1,29.99,WSW,247,0.0,0.0,97,0.00,,OVC055,0.00,VWS V14.01,2013-02-14 09:34:00,
2013-02-14 04:39:00,26.9,26.4,29.99,WSW,247,0.0,1.0,98,0.00,,OVC055,0.00,VWS V14.01,2013-02-14 09:39:00,
2013-02-14 04:44:00,26.9,26.4,29.99,WSW,247,0.0,1.0,98,0.00,,OVC055,0.00,VWS V14.01,2013-02-14 09:44:00,
2013-02-14 04:49:00,26.8,26.1,29.99,WSW,247,0.0,1.0,97,0.00,,OVC055,0.00,VWS V14.01,2013-02-14 09:49:00,
2013-02-14 04:54:00,26.7,26.0,30.00,WSW,247,2.0,2.0,97,0.00,,OVC055,0.00,VWS V14.01,2013-02-14 09:54:00,
2013-02-14 04:59:00,26.8,26.3,30.00,WSW,247,0.0,2.0,98,0.00,,OVC055,0.00,VWS V14.01,2013-02-14 09:59:00,
2013-02-14 05:00:00,26.8,26.3,30.00,WSW,247,0.0,2.0,98,0.00,,OVC055,0.00,VWS V14.01,2013-02-14 10:00:00,
2013-02-14 05:04:00,26.9,26.4,30.00,WSW,247,0.0,0.0,98,0.00,,OVC055,0.00,VWS V14.01,2013-02-14 10:04:00,
2013-02-14 05:09:00,26.9,26.4,30.00,WSW,247,0.0,0.0,98,0.00,,OVC055,0.00,VWS V14.01,2013-02-14 10:09:00,
2013-02-14 05:14:00,26.8,26.3,30.01,WSW,247,0.0,0.0,98,0.00,,OVC055,0.00,VWS V14.01,2013-02-14 10:14:00,
2013-02-14 05:19:00,26.5,25.8,30.01,WSW,247,0.0,1.0,97,0.00,,OVC055,0.00,VWS V14.01,2013-02-14 10:19:00,
2013-02-14 05:24:00,26.3,25.6,30.01,WSW,247,0.0,1.0,97,0.00,,OVC055,0.00,VWS V14.01,2013-02-14 10:24:00,
2013-02-14 05:29:00,26.2,25.5,30.00,WSW,247,0.0,1.0,97,0.00,,OVC055,0.00,VWS V14.01,2013-02-14 10:29:00,
2013-02-14 05:30:00,26.2,25.5,30.00,WSW,247,0.0,1.0,97,0.00,,OVC055,0.00,VWS V14.01,2013-02-14 10:30:00,
2013-02-14 05:34:00,26.1,25.4,30.01,WSW,247,0.0,0.0,97,0.00,,OVC055,0.00,VWS V14.01,2013-02-14 10:34:00,
2013-02-14 05:39:00,26.1,25.4,30.00,WSW,247,0.0,0.0,97,0.00,,OVC055,0.00,VWS V14.01,2013-02-14 10:39:00,
2013-02-14 05:44:00,26.0,25.3,30.01,WSW,247,0.0,0.0,97,0.00,,OVC055,0.00,VWS V14.01,2013-02-14 10:44:00,
2013-02-14 05:49:00,26.0,25.3,30.01,WSW,247,0.0,0.0,97,0.00,,OVC055,0.00,VWS V14.01,2013-02-14 10:49:00,
2013-02-14 05:54:00,26.0,25.3,30.00,WSW,247,0.0,0.0,97,0.00,,OVC055,0.00,VWS V14.01,2013-02-14 10:54:00,
2013-02-14 05:59:00,26.0,25.3,30.00,WSW,247,0.0,0.0,97,0.00,,OVC055,0.00,VWS V14.01,2013-02-14 10:59:00,
2013-02-14 06:00:00,26.0,25.3,30.00,WSW,247,0.0,0.0,97,0.00,,OVC055,0.00,VWS V14.01,2013-02-14 11:00:00,
2013-02-14 06:04:00,26.0,25.5,30.01,WSW,247,0.0,0.0,98,0.00,,OVC055,0.00,VWS V14.01,2013-02-14 11:04:00,
2013-02-14 06:09:00,26.0,25.3,30.01,WSW,247,0.0,0.0,97,0.00,,OVC055,0.00,VWS V14.01,2013-02-14 11:09:00,
2013-02-14 06:14:00,25.8,25.1,30.01,WSW,247,0.0,0.0,97,0.00,,OVC055,0.00,VWS V14.01,2013-02-14 11:14:00,
2013-02-14 06:19:00,25.6,24.9,30.01,WSW,247,0.0,0.0,97,0.00,,OVC055,0.00,VWS V14.01,2013-02-14 11:19:00,
2013-02-14 06:24:00,25.4,24.7,30.01,WSW,247,0.0,0.0,97,0.00,,OVC055,0.00,VWS V14.01,2013-02-14 11:24:00,
2013-02-14 06:29:00,25.4,24.7,30.02,WSW,247,0.0,0.0,97,0.00,,OVC055,0.00,VWS V14.01,2013-02-14 11:29:00,
2013-02-14 06:30:00,25.4,24.7,30.02,WSW,247,0.0,0.0,97,0.00,,OVC055,0.00,VWS V14.01,2013-02-14 11:30:00,
2013-02-14 06:34:00,25.5,25.0,30.02,WSW,247,0.0,0.0,98,0.00,,OVC055,0.00,VWS V14.01,2013-02-14 11:34:00,
2013-02-14 06:39:00,25.4,24.9,30.02,WSW,247,0.0,0.0,98,0.00,,OVC055,0.00,VWS V14.01,2013-02-14 11:39:00,
2013-02-14 06:44:00,25.4,24.7,30.02,WSW,247,0.0,0.0,97,0.00,,OVC055,0.00,VWS V14.01,2013-02-14 11:44:00,
2013-02-14 06:49:00,25.3,24.6,30.03,WSW,247,0.0,0.0,97,0.00,,OVC055,0.00,VWS V14.01,2013-02-14 11:49:00,
2013-02-14 06:54:00,25.1,24.4,30.04,WSW,247,0.0,0.0,97,0.00,,OVC055,0.00,VWS V14.01,2013-02-14 11:54:00,
2013-02-14 06:59:00,25.1,24.4,30.04,WSW,247,0.0,0.0,97,0.00,,OVC055,0.00,VWS V14.01,2013-02-14 11:59:00,
2013-02-14 07:00:00,25.1,24.4,30.04,WSW,247,0.0,0.0,97,0.00,,OVC055,0.00,VWS V14.01,2013-02-14 12:00:00,
2013-02-14 07:04:00,25.1,24.4,30.04,WSW,247,0.0,0.0,97,0.00,,OVC055,0.00,VWS V14.01,2013-02-14 12:04:00,
2013-02-14 07:09:00,25.0,24.3,30.05,WSW,247,0.0,0.0,97,0.00,,OVC055,0.00,VWS V14.01,2013-02-14 12:09:00,
2013-02-14 07:14:00,24.9,24.2,30.05,WSW,247,0.0,0.0,97,0.00,,OVC055,0.00,VWS V14.01,2013-02-14 12:14:00,
2013-02-14 07:19:00,24.9,24.2,30.05,WSW,247,0.0,0.0,97,0.00,,OVC055,0.00,VWS V14.01,2013-02-14 12:19:00,
2013-02-14 07:24:00,24.9,24.2,30.05,WSW,247,0.0,1.0,97,0.00,,OVC055,0.00,VWS V14.01,2013-02-14 12:24:00,
2013-02-14 07:29:00,25.1,24.6,30.06,WSW,247,0.0,1.0,98,0.00,,OVC055,0.00,VWS V14.01,2013-02-14 12:29:00,
2013-02-14 07:30:00,25.1,24.6,30.06,WSW,247,0.0,1.0,98,0.00,,OVC055,0.00,VWS V14.01,2013-02-14 12:30:00,
2013-02-14 07:34:00,25.1,24.6,30.07,WSW,247,0.0,0.0,98,0.00,,OVC055,0.00,VWS V14.01,2013-02-14 12:34:00,
2013-02-14 07:39:00,25.0,24.3,30.07,WSW,247,0.0,0.0,97,0.00,,OVC055,0.00,VWS V14.01,2013-02-14 12:39:00,
2013-02-14 07:44:00,24.9,24.2,30.07,WSW,247,0.0,0.0,97,0.00,,OVC055,0.00,VWS V14.01,2013-02-14 12:44:00,
2013-02-14 07:49:00,24.8,24.1,30.07,WSW,247,0.0,0.0,97,0.00,,OVC055,0.00,VWS V14.01,2013-02-14 12:49:00,
2013-02-14 07:54:00,24.8,24.1,30.08,WSW,247,0.0,0.0,97,0.00,,OVC055,0.00,VWS V14.01,2013-02-14 12:54:00,
2013-02-14 07:59:00,24.7,24.0,30.08,WSW,247,0.0,0.0,97,0.00,,OVC055,0.00,VWS V14.01,2013-02-14 12:59:00,
2013-02-14 08:00:00,24.7,24.0,30.08,WSW,247,0.0,0.0,97,0.00,,OVC055,0.00,VWS V14.01,2013-02-14 13:00:00,
2013-02-14 08:04:00,24.7,24.0,30.08,WSW,247,0.0,0.0,97,0.00,,OVC055,0.00,VWS V14.01,2013-02-14 13:04:00,
2013-02-14 08:09:00,24.7,24.0,30.08,WSW,247,0.0,0.0,97,0.00,,OVC055,0.00,VWS V14.01,2013-02-14 13:09:00,
2013-02-14 08:14:00,24.8,24.1,30.09,WSW,247,0.0,0.0,97,0.00,,OVC055,0.00,VWS V14.01,2013-02-14 13:14:00,
2013-02-14 08:19:00,24.9,24.2,30.09,WSW,247,0.0,0.0,97,0.00,,OVC055,0.00,VWS V14.01,2013-02-14 13:19:00,
2013-02-14 08:24:00,25.1,24.6,30.10,WSW,247,0.0,0.0,98,0.00,,OVC055,0.00,VWS V14.01,2013-02-14 13:24:00,
2013-02-14 08:29:00,25.3,24.8,30.10,WSW,247,0.0,0.0,98,0.00,,OVC055,0.00,VWS V14.01,2013-02-14 13:29:00,
2013-02-14 08:30:00,25.3,24.8,30.10,WSW,247,0.0,0.0,98,0.00,,OVC055,0.00,VWS V14.01,2013-02-14 13:30:00,
2013-02-14 08:34:00,25.4,24.9,30.10,WSW,247,0.0,0.0,98,0.00,,OVC055,0.00,VWS V14.01,2013-02-14 13:34:00,
2013-02-14 08:39:00,25.7,25.2,30.10,WSW,247,0.0,1.0,98,0.00,,OVC055,0.00,VWS V14.01,2013-02-14 13:39:00,
2013-02-14 08:43:00,25.9,25.4,30.10,WSW,247,0.0,1.0,98,0.00,,OVC055,0.00,VWS V14.01,2013-02-14 13:43:00,
2013-02-14 08:48:00,26.1,25.6,30.11,WSW,247,0.0,1.0,98,0.00,,OVC055,0.00,VWS V14.01,2013-02-14 13:48:00,
2013-02-14 08:53:00,26.4,25.9,30.11,WSW,247,0.0,1.0,98,0.00,,OVC055,0.00,VWS V14.01,2013-02-14 13:53:00,
2013-02-14 08:58:00,26.7,26.5,30.11,WSW,247,0.0,1.0,99,0.00,,OVC055,0.00,VWS V14.01,2013-02-14 13:58:00,
2013-02-14 09:00:00,26.7,26.5,30.11,WSW,247,0.0,1.0,99,0.00,,OVC055,0.00,VWS V14.01,2013-02-14 14:00:00,
2013-02-14 09:03:00,27.0,26.8,30.12,WSW,247,0.0,1.0,99,0.00,,OVC055,0.00,VWS V14.01,2013-02-14 14:03:00,
2013-02-14 09:08:00,27.4,27.2,30.12,WSW,247,0.0,1.0,99,0.00,,OVC055,0.00,VWS V14.01,2013-02-14 14:08:00,
2013-02-14 09:13:00,27.8,27.6,30.12,WSW,247,0.0,1.0,99,0.00,,OVC055,0.00,VWS V14.01,2013-02-14 14:13:00,
2013-02-14 09:18:00,28.3,28.0,30.12,WSW,247,0.0,1.0,99,0.00,,OVC055,0.00,VWS V14.01,2013-02-14 14:18:00,
2013-02-14 09:23:00,28.9,28.6,30.11,WSW,247,0.0,2.0,99,0.00,,OVC055,0.00,VWS V14.01,2013-02-14 14:23:00,
2013-02-14 09:28:00,29.3,29.0,30.11,WSW,247,0.0,2.0,99,0.00,,OVC055,0.00,VWS V14.01,2013-02-14 14:28:00,
2013-02-14 09:30:00,29.4,29.1,30.11,WSW,247,0.0,2.0,99,0.00,,OVC055,0.00,VWS V14.01,2013-02-14 14:30:00,
2013-02-14 09:33:00,30.0,29.8,30.12,WSW,247,0.0,0.0,99,0.00,,OVC055,0.00,VWS V14.01,2013-02-14 14:33:00,
2013-02-14 09:38:00,30.7,30.5,30.11,WSW,247,1.0,1.0,99,0.00,,OVC055,0.00,VWS V14.01,2013-02-14 14:38:00,
2013-02-14 09:43:00,31.3,31.0,30.11,WSW,247,0.0,1.0,99,0.00,,OVC055,0.00,VWS V14.01,2013-02-14 14:43:00,
2013-02-14 09:48:00,32.1,31.6,30.11,SSW,207,1.0,2.0,98,0.00,,OVC055,0.00,VWS V14.01,2013-02-14 14:48:00,
2013-02-14 09:53:00,32.7,31.9,30.10,SW,222,1.0,2.0,97,0.00,,OVC055,0.00,VWS V14.01,2013-02-14 14:53:00,
2013-02-14 09:58:00,33.2,31.9,30.11,NNW,332,0.0,2.0,95,0.00,,OVC055,0.00,VWS V14.01,2013-02-14 14:58:00,
2013-02-14 10:00:00,33.2,31.9,30.11,NNW,333,1.0,2.0,95,0.00,,OVC055,0.00,VWS V14.01,2013-02-14 15:00:00,
2013-02-14 10:03:00,33.5,32.0,30.11,North,360,0.0,3.0,94,0.00,,OVC055,0.00,VWS V14.01,2013-02-14 15:03:00,
2013-02-14 10:08:00,34.1,32.3,30.11,North,360,1.0,3.0,93,0.00,,OVC055,0.00,VWS V14.01,2013-02-14 15:08:00,
2013-02-14 10:13:00,34.3,32.0,30.10,North,9,0.0,3.0,91,0.00,,OVC055,0.00,VWS V14.01,2013-02-14 15:13:00,
2013-02-14 10:18:00,34.8,32.2,30.10,North,9,0.0,3.0,90,0.00,,OVC055,0.00,VWS V14.01,2013-02-14 15:18:00,
2013-02-14 10:23:00,35.3,32.4,30.09,North,9,0.0,3.0,89,0.00,,OVC055,0.00,VWS V14.01,2013-02-14 15:23:00,
2013-02-14 10:28:00,36.1,32.0,30.09,North,5,1.0,3.0,85,0.00,,OVC055,0.00,VWS V14.01,2013-02-14 15:28:00,
2013-02-14 10:30:00,36.1,31.7,30.09,North,5,1.0,3.0,84,0.00,,OVC055,0.00,VWS V14.01,2013-02-14 15:30:00,
2013-02-14 10:33:00,36.3,32.2,30.09,North,5,1.0,2.0,85,0.00,,OVC055,0.00,VWS V14.01,2013-02-14 15:33:00,
2013-02-14 10:38:00,36.6,32.2,30.09,North,5,1.0,3.0,84,0.00,,OVC055,0.00,VWS V14.01,2013-02-14 15:38:00,
2013-02-14 10:43:00,37.0,32.9,30.08,NNE,17,0.0,3.0,85,0.00,,OVC055,0.00,VWS V14.01,2013-02-14 15:43:00,
2013-02-14 10:48:00,37.7,33.0,30.09,East,81,3.0,3.0,83,0.00,,OVC055,0.00,VWS V14.01,2013-02-14 15:48:00,
2013-02-14 10:53:00,38.3,32.7,30.10,ENE,77,1.0,3.0,80,0.00,,OVC055,0.00,VWS V14.01,2013-02-14 15:53:00,
2013-02-14 10:58:00,39.2,34.5,30.10,South,178,0.0,3.0,83,0.00,,OVC055,0.00,VWS V14.01,2013-02-14 15:58:00,
2013-02-14 11:00:00,39.3,34.3,30.10,South,178,0.0,3.0,82,0.00,,OVC055,0.00,VWS V14.01,2013-02-14 16:00:00,
2013-02-14 11:03:00,39.7,32.8,30.10,SSE,157,3.0,5.0,76,0.00,,OVC055,0.00,VWS V14.01,2013-02-14 16:03:00,
2013-02-14 11:08:00,40.0,32.1,30.10,West,276,0.0,5.0,73,0.00,,OVC055,0.00,VWS V14.01,2013-02-14 16:08:00,
2013-02-14 11:13:00,40.7,32.7,30.10,WSW,258,1.0,5.0,73,0.00,,OVC055,0.00,VWS V14.01,2013-02-14 16:13:00,
2013-02-14 11:18:00,41.3,33.0,30.09,ESE,108,1.0,5.0,72,0.00,,OVC055,0.00,VWS V14.01,2013-02-14 16:18:00,
2013-02-14 11:23:00,41.7,33.7,30.10,WSW,242,0.0,5.0,73,0.00,,OVC055,0.00,VWS V14.01,2013-02-14 16:23:00,
2013-02-14 11:28:00,42.4,33.3,30.09,NNE,33,1.0,5.0,70,0.00,,OVC055,0.00,VWS V14.01,2013-02-14 16:28:00,
2013-02-14 11:30:00,42.4,33.0,30.09,NNE,32,2.0,5.0,69,0.00,,OVC055,0.00,VWS V14.01,2013-02-14 16:30:00,
2013-02-14 11:33:00,42.6,32.8,30.09,SE,128,3.0,3.0,68,0.00,,OVC055,0.00,VWS V14.01,2013-02-14 16:33:00,
2013-02-14 11:38:00,43.1,32.5,30.08,ENE,63,2.0,4.0,66,0.00,,OVC055,0.00,VWS V14.01,2013-02-14 16:38:00,
2013-02-14 11:43:00,43.8,33.9,30.08,North,355,5.0,5.0,68,0.00,,OVC055,0.00,VWS V14.01,2013-02-14 16:43:00,
2013-02-14 11:48:00,44.3,34.0,30.08,North,5,0.0,6.0,67,0.00,,OVC055,0.00,VWS V14.01,2013-02-14 16:48:00,
2013-02-14 11:53:00,45.2,33.8,30.08,North,5,2.0,6.0,64,0.00,,OVC055,0.00,VWS V14.01,2013-02-14 16:53:00,
2013-02-14 11:58:00,45.6,32.9,30.09,NNE,28,1.0,6.0,61,0.00,,OVC055,0.00,VWS V14.01,2013-02-14 16:58:00,
2013-02-14 12:00:00,45.6,32.9,30.09,NNE,28,0.0,6.0,61,0.00,,OVC055,0.00,VWS V14.01,2013-02-14 17:00:00,
2013-02-14 12:03:00,46.0,32.9,30.08,NW,306,1.0,4.0,60,0.00,,OVC055,0.00,VWS V14.01,2013-02-14 17:03:00,
2013-02-14 12:08:00,46.6,33.5,30.08,East,96,1.0,4.0,60,0.00,,OVC055,0.00,VWS V14.01,2013-02-14 17:08:00,
2013-02-14 12:13:00,46.7,33.6,30.09,NNE,13,0.0,5.0,60,0.00,,OVC055,0.00,VWS V14.01,2013-02-14 17:13:00,
2013-02-14 12:18:00,47.0,33.8,30.08,North,5,3.0,6.0,60,0.00,,OVC055,0.00,VWS V14.01,2013-02-14 17:18:00,
2013-02-14 12:23:00,47.0,34.3,30.08,NNW,348,0.0,6.0,61,0.00,,OVC055,0.00,VWS V14.01,2013-02-14 17:23:00,
2013-02-14 12:28:00,47.5,34.3,30.07,North,5,2.0,6.0,60,0.00,,OVC055,0.00,VWS V14.01,2013-02-14 17:28:00,
2013-02-14 12:30:00,47.6,34.4,30.07,North,5,1.0,6.0,60,0.00,,OVC055,0.00,VWS V14.01,2013-02-14 17:30:00,
2013-02-14 12:33:00,48.1,34.9,30.07,North,5,2.0,3.0,60,0.00,,OVC055,0.00,VWS V14.01,2013-02-14 17:33:00,
2013-02-14 12:38:00,49.3,34.7,30.07,North,355,3.0,6.0,57,0.00,,OVC055,0.00,VWS V14.01,2013-02-14 17:38:00,
2013-02-14 12:43:00,49.9,33.5,30.07,ESE,113,0.0,6.0,53,0.00,,OVC055,0.00,VWS V14.01,2013-02-14 17:43:00,
2013-02-14 12:48:00,50.5,35.0,30.06,NW,317,3.0,6.0,55,0.00,,OVC055,0.00,VWS V14.01,2013-02-14 17:48:00,
2013-02-14 12:53:00,51.3,33.3,30.06,SSE,157,1.0,6.0,50,0.00,,OVC055,0.00,VWS V14.01,2013-02-14 17:53:00,
2013-02-14 12:58:00,51.4,33.9,30.05,North,350,2.0,6.0,51,0.00,,OVC055,0.00,VWS V14.01,2013-02-14 17:58:00,
2013-02-14 13:00:00,51.3,32.8,30.05,WNW,294,3.0,6.0,49,0.00,,OVC055,0.00,VWS V14.01,2013-02-14 18:00:00,
2013-02-14 13:03:00,51.3,32.8,30.05,NW,308,3.0,3.0,49,0.00,,OVC055,0.00,VWS V14.01,2013-02-14 18:03:00,
2013-02-14 13:08:00,51.6,32.0,30.04,WSW,240,2.0,4.0,47,0.00,,OVC055,0.00,VWS V14.01,2013-02-14 18:08:00,
2013-02-14 13:13:00,51.4,32.4,30.04,NW,315,1.0,5.0,48,0.00,,OVC055,0.00,VWS V14.01,2013-02-14 18:13:00,
2013-02-14 13:18:00,51.3,31.2,30.03,West,272,2.0,7.0,46,0.00,,OVC055,0.00,VWS V14.01,2013-02-14 18:18:00,
2013-02-14 13:23:00,51.3,33.3,30.03,NE,45,2.0,7.0,50,0.00,,OVC055,0.00,VWS V14.01,2013-02-14 18:23:00,
2013-02-14 13:28:00,51.4,31.9,30.03,ENE,58,3.0,7.0,47,0.00,,OVC055,0.00,VWS V14.01,2013-02-14 18:28:00,
2013-02-14 13:30:00,51.3,32.3,30.03,East,80,0.0,7.0,48,0.00,,OVC055,0.00,VWS V14.01,2013-02-14 18:30:00,
2013-02-14 13:33:00,51.4,32.9,30.03,SE,136,1.0,4.0,49,0.00,,OVC055,0.00,VWS V14.01,2013-02-14 18:33:00,
2013-02-14 13:38:00,51.2,31.7,30.02,WSW,252,1.0,6.0,47,0.00,,OVC055,0.00,VWS V14.01,2013-02-14 18:38:00,
2013-02-14 13:43:00,51.4,32.4,30.02,NE,55,2.0,6.0,48,0.00,,OVC055,0.00,VWS V14.01,2013-02-14 18:43:00,
2013-02-14 13:48:00,51.5,33.5,30.02,West,272,2.0,6.0,50,0.00,,OVC055,0.00,VWS V14.01,2013-02-14 18:48:00,
2013-02-14 13:53:00,51.4,33.9,30.01,ESE,109,2.0,7.0,51,0.00,,OVC055,0.00,VWS V14.01,2013-02-14 18:53:00,
2013-02-14 13:58:00,51.5,34.0,30.01,NNW,336,6.0,7.0,51,0.00,,OVC055,0.00,VWS V14.01,2013-02-14 18:58:00,
2013-02-14 14:00:00,51.5,33.5,30.01,North,355,5.0,7.0,50,0.00,,OVC055,0.00,VWS V14.01,2013-02-14 19:00:00,
2013-02-14 14:03:00,51.5,35.0,30.02,WNW,294,2.0,5.0,53,0.00,,OVC055,0.00,VWS V14.01,2013-02-14 19:03:00,
2013-02-14 14:08:00,51.7,33.7,30.02,West,265,4.0,5.0,50,0.00,,OVC055,0.00,VWS V14.01,2013-02-14 19:08:00,
2013-02-14 14:13:00,51.6,34.6,30.02,NNW,338,6.0,6.0,52,0.00,,OVC055,0.00,VWS V14.01,2013-02-14 19:13:00,
2013-02-14 14:18:00,51.2,35.1,30.03,ENE,66,5.0,9.0,54,0.00,,OVC055,0.00,VWS V14.01,2013-02-14 19:18:00,
2013-02-14 14:23:00,51.0,34.5,30.03,NW,306,1.0,9.0,53,0.00,,OVC055,0.00,VWS V14.01,2013-02-14 19:23:00,
2013-02-14 14:28:00,51.0,35.0,30.04,SW,236,5.0,9.0,54,0.00,,OVC055,0.00,VWS V14.01,2013-02-14 19:28:00,
2013-02-14 14:30:00,51.0,35.0,30.04,East,80,2.0,9.0,54,0.00,,OVC055,0.00,VWS V14.01,2013-02-14 19:30:00,
2013-02-14 14:33:00,50.8,35.7,30.04,North,351,3.0,5.0,56,0.00,,OVC055,0.00,VWS V14.01,2013-02-14 19:33:00,
2013-02-14 14:38:00,50.8,34.8,30.04,West,269,5.0,8.0,54,0.00,,OVC055,0.00,VWS V14.01,2013-02-14 19:38:00,
2013-02-14 14:43:00,50.5,35.0,30.05,NNE,17,2.0,10.0,55,0.00,,OVC055,0.00,VWS V14.01,2013-02-14 19:43:00,
2013-02-14 14:48:00,50.7,35.1,30.04,SW,224,1.0,10.0,55,0.00,,OVC055,0.00,VWS V14.01,2013-02-14 19:48:00,
2013-02-14 14:53:00,50.7,35.1,30.04,WNW,285,5.0,10.0,55,0.00,,OVC055,0.00,VWS V14.01,2013-02-14 19:53:00,
2013-02-14 14:58:00,50.7,35.6,30.03,North,360,1.0,10.0,56,0.00,,OVC055,0.00,VWS V14.01,2013-02-14 19:58:00,
2013-02-14 15:00:00,50.7,35.1,30.03,WNW,301,2.0,10.0,55,0.00,,OVC055,0.00,VWS V14.01,2013-02-14 20:00:00,
2013-02-14 15:03:00,50.8,35.7,30.03,WNW,294,1.0,4.0,56,0.00,,OVC055,0.00,VWS V14.01,2013-02-14 20:03:00,
2013-02-14 15:08:00,50.9,36.2,30.03,NNW,345,4.0,6.0,57,0.00,,OVC055,0.00,VWS V14.01,2013-02-14 20:08:00,
2013-02-14 15:13:00,50.9,36.2,30.03,West,259,4.0,6.0,57,0.00,,OVC055,0.00,VWS V14.01,2013-02-14 20:13:00,
2013-02-14 15:18:00,50.7,35.6,30.03,NE,53,4.0,8.0,56,0.00,,OVC055,0.00,VWS V14.01,2013-02-14 20:18:00,
2013-02-14 15:23:00,50.8,35.7,30.03,NNW,336,1.0,8.0,56,0.00,,OVC055,0.00,VWS V14.01,2013-02-14 20:23:00,
2013-02-14 15:28:00,50.8,35.2,30.04,NW,306,0.0,8.0,55,0.00,,OVC055,0.00,VWS V14.01,2013-02-14 20:28:00,
2013-02-14 15:30:00,50.8,35.7,30.04,West,275,0.0,8.0,56,0.00,,OVC055,0.00,VWS V14.01,2013-02-14 20:30:00,
2013-02-14 15:33:00,50.8,36.1,30.03,NNW,329,1.0,8.0,57,0.00,,OVC055,0.00,VWS V14.01,2013-02-14 20:33:00,
2013-02-14 15:37:00,50.9,36.7,30.03,NW,326,0.0,8.0,58,0.00,,OVC055,0.00,VWS V14.01,2013-02-14 20:37:00,
2013-02-14 15:42:00,50.9,36.2,30.02,SW,233,2.0,8.0,57,0.00,,OVC055,0.00,VWS V14.01,2013-02-14 20:42:00,
2013-02-14 15:47:00,50.9,35.8,30.02,WNW,297,1.0,8.0,56,0.00,,OVC055,0.00,VWS V14.01,2013-02-14 20:47:00,
2013-02-14 15:52:00,51.0,36.8,30.03,WNW,303,3.0,8.0,58,0.00,,OVC055,0.00,VWS V14.01,2013-02-14 20:52:00,
2013-02-14 15:57:00,51.1,35.5,30.03,WSW,250,2.0,8.0,55,0.00,,OVC055,0.00,VWS V14.01,2013-02-14 20:57:00,
2013-02-14 16:00:00,51.0,35.4,30.03,NNE,31,2.0,8.0,55,0.00,,OVC055,0.00,VWS V14.01,2013-02-14 21:00:00,
2013-02-14 16:02:00,50.4,35.3,30.03,WSW,241,3.0,8.0,56,0.00,,OVC055,0.00,VWS V14.01,2013-02-14 21:02:00,
2013-02-14 16:07:00,50.0,35.8,30.03,SW,223,2.0,8.0,58,0.00,,OVC055,0.00,VWS V14.01,2013-02-14 21:07:00,
2013-02-14 16:12:00,49.8,35.6,30.03,West,259,2.0,8.0,58,0.00,,OVC055,0.00,VWS V14.01,2013-02-14 21:12:00,
2013-02-14 16:17:00,49.6,35.5,30.03,SW,218,0.0,8.0,58,0.00,,OVC055,0.00,VWS V14.01,2013-02-14 21:17:00,
2013-02-14 16:22:00,49.4,35.7,30.03,SSW,211,3.0,8.0,59,0.00,,OVC055,0.00,VWS V14.01,2013-02-14 21:22:00,
2013-02-14 16:27:00,49.4,36.1,30.03,West,271,1.0,8.0,60,0.00,,OVC055,0.00,VWS V14.01,2013-02-14 21:27:00,
2013-02-14 16:30:00,49.3,35.6,30.02,WSW,250,1.0,8.0,59,0.00,,OVC055,0.00,VWS V14.01,2013-02-14 21:30:00,
2013-02-14 16:32:00,49.3,36.0,30.03,SW,234,1.0,5.0,60,0.00,,OVC055,0.00,VWS V14.01,2013-02-14 21:32:00,
2013-02-14 16:37:00,49.4,36.1,30.03,SW,232,2.0,5.0,60,0.00,,OVC055,0.00,VWS V14.01,2013-02-14 21:37:00,
2013-02-14 16:42:00,49.4,36.1,30.03,SSW,196,0.0,8.0,60,0.00,,OVC055,0.00,VWS V14.01,2013-02-14 21:42:00,
2013-02-14 16:47:00,49.3,34.3,30.03,SW,215,0.0,8.0,56,0.00,,OVC055,0.00,VWS V14.01,2013-02-14 21:47:00,
2013-02-14 16:52:00,49.2,33.3,30.03,WSW,247,1.0,8.0,54,0.00,,OVC055,0.00,VWS V14.01,2013-02-14 21:52:00,
2013-02-14 16:57:00,49.2,34.2,30.03,WSW,251,2.0,8.0,56,0.00,,OVC055,0.00,VWS V14.01,2013-02-14 21:57:00,
2013-02-14 17:00:00,49.1,33.7,30.03,SW,214,3.0,8.0,55,0.00,,OVC055,0.00,VWS V14.01,2013-02-14 22:00:00,
2013-02-14 17:02:00,49.1,33.7,30.03,South,170,3.0,5.0,55,0.00,,OVC055,0.00,VWS V14.01,2013-02-14 22:02:00,
2013-02-14 17:07:00,49.0,34.0,30.03,SSW,211,6.0,6.0,56,0.00,,OVC055,0.00,VWS V14.01,2013-02-14 22:07:00,
2013-02-14 17:12:00,48.8,33.8,30.03,SSE,168,1.0,6.0,56,0.00,,OVC055,0.00,VWS V14.01,2013-02-14 22:12:00,
2013-02-14 17:17:00,48.6,34.5,30.03,WSW,242,1.0,7.0,58,0.00,,OVC055,0.00,VWS V14.01,2013-02-14 22:17:00,
2013-02-14 17:22:00,48.5,33.5,30.03,West,265,0.0,9.0,56,0.00,,OVC055,0.00,VWS V14.01,2013-02-14 22:22:00,
2013-02-14 17:27:00,48.3,33.8,30.03,South,186,2.0,9.0,57,0.00,,OVC055,0.00,VWS V14.01,2013-02-14 22:27:00,
2013-02-14 17:30:00,48.2,33.3,30.03,South,186,1.0,9.0,56,0.00,,OVC055,0.00,VWS V14.01,2013-02-14 22:30:00,
2013-02-14 17:32:00,48.0,33.5,30.03,SSE,167,1.0,3.0,57,0.00,,OVC055,0.00,VWS V14.01,2013-02-14 22:32:00,
2013-02-14 17:37:00,47.8,33.8,30.03,WSW,242,2.0,4.0,58,0.00,,OVC055,0.00,VWS V14.01,2013-02-14 22:37:00,
2013-02-14 17:42:00,47.4,33.4,30.03,SSW,198,5.0,5.0,58,0.00,,OVC055,0.00,VWS V14.01,2013-02-14 22:42:00,
2013-02-14 17:47:00,47.5,33.0,30.03,WSW,239,1.0,5.0,57,0.00,,OVC055,0.00,VWS V14.01,2013-02-14 22:47:00,
2013-02-14 17:52:00,47.3,33.3,30.04,SSE,159,0.0,5.0,58,0.00,,OVC055,0.00,VWS V14.01,2013-02-14 22:52:00,
2013-02-14 17:57:00,47.2,33.2,30.04,SSE,159,0.0,5.0,58,0.00,,OVC055,0.00,VWS V14.01,2013-02-14 22:57:00,
2013-02-14 18:00:00,47.1,33.1,30.04,South,175,1.0,5.0,58,0.00,,OVC055,0.00,VWS V14.01,2013-02-14 23:00:00,
2013-02-14 18:02:00,46.9,33.3,30.04,WSW,247,0.0,4.0,59,0.00,,OVC055,0.00,VWS V14.01,2013-02-14 23:02:00,
2013-02-14 18:07:00,46.6,33.0,30.04,South,182,0.0,4.0,59,0.00,,OVC055,0.00,VWS V14.01,2013-02-14 23:07:00,
2013-02-14 18:12:00,46.4,33.3,30.04,SSW,207,1.0,4.0,60,0.00,,OVC055,0.00,VWS V14.01,2013-02-14 23:12:00,
2013-02-14 18:17:00,46.0,32.9,30.04,SW,235,1.0,4.0,60,0.00,,OVC055,0.00,VWS V14.01,2013-02-14 23:17:00,
2013-02-14 18:22:00,45.8,33.1,30.05,SW,225,0.0,4.0,61,0.00,,OVC055,0.00,VWS V14.01,2013-02-14 23:22:00,
2013-02-14 18:27:00,45.3,32.7,30.05,SW,225,0.0,4.0,61,0.00,,OVC055,0.00,VWS V14.01,2013-02-14 23:27:00,
2013-02-14 18:30:00,45.2,33.0,30.05,SW,225,0.0,4.0,62,0.00,,OVC055,0.00,VWS V14.01,2013-02-14 23:30:00,
2013-02-14 18:32:00,44.8,33.0,30.05,SW,225,0.0,0.0,63,0.00,,OVC055,0.00,VWS V14.01,2013-02-14 23:32:00,
2013-02-14 18:37:00,44.3,32.1,30.05,SW,225,0.0,0.0,62,0.00,,OVC055,0.00,VWS V14.01,2013-02-14 23:37:00,
2013-02-14 18:42:00,43.6,33.8,30.05,SW,225,0.0,1.0,68,0.00,,OVC055,0.00,VWS V14.01,2013-02-14 23:42:00,
2013-02-14 18:47:00,42.9,32.3,30.05,SW,225,0.0,1.0,66,0.00,,OVC055,0.00,VWS V14.01,2013-02-14 23:47:00,
2013-02-14 18:52:00,42.7,31.8,30.06,SW,225,0.0,1.0,65,0.00,,OVC055,0.00,VWS V14.01,2013-02-14 23:52:00,
2013-02-14 18:57:00,42.6,31.7,30.06,WSW,252,0.0,3.0,65,0.00,,OVC055,0.00,VWS V14.01,2013-02-14 23:57:00,
2013-02-14 19:00:00,42.6,32.0,30.06,WSW,252,0.0,3.0,66,0.00,,OVC055,0.00,VWS V14.01,2013-02-15 00:00:00,
2013-02-14 19:02:00,42.4,32.2,30.06,WSW,252,0.0,0.0,67,0.00,,OVC055,0.00,VWS V14.01,2013-02-15 00:02:00,
2013-02-14 19:07:00,42.2,33.5,30.06,WSW,252,0.0,1.0,71,0.00,,OVC055,0.00,VWS V14.01,2013-02-15 00:07:00,
2013-02-14 19:12:00,41.8,33.5,30.06,WSW,252,0.0,1.0,72,0.00,,OVC055,0.00,VWS V14.01,2013-02-15 00:12:00,
2013-02-14 19:17:00,41.5,32.8,30.06,WSW,252,0.0,1.0,71,0.00,,OVC055,0.00,VWS V14.01,2013-02-15 00:17:00,
2013-02-14 19:22:00,41.0,32.7,30.05,WSW,252,0.0,1.0,72,0.00,,OVC055,0.00,VWS V14.01,2013-02-15 00:22:00,
2013-02-14 19:27:00,40.4,32.4,30.06,WSW,252,1.0,1.0,73,0.00,,OVC055,0.00,VWS V14.01,2013-02-15 00:27:00,
2013-02-14 19:30:00,40.2,32.2,30.06,WSW,252,0.0,1.0,73,0.00,,OVC055,0.00,VWS V14.01,2013-02-15 00:30:00,
2013-02-14 19:32:00,39.9,32.3,30.06,WSW,252,0.0,0.0,74,0.00,,OVC055,0.00,VWS V14.01,2013-02-15 00:32:00,
2013-02-14 19:37:00,39.7,32.4,30.07,WSW,252,0.0,1.0,75,0.00,,OVC055,0.00,VWS V14.01,2013-02-15 00:37:00,
2013-02-14 19:42:00,39.8,32.5,30.07,WSW,252,0.0,1.0,75,0.00,,OVC055,0.00,VWS V14.01,2013-02-15 00:42:00,
2013-02-14 19:47:00,39.5,32.2,30.07,WSW,252,1.0,1.0,75,0.00,,OVC055,0.00,VWS V14.01,2013-02-15 00:47:00,
2013-02-14 19:52:00,39.4,31.8,30.07,WSW,252,0.0,2.0,74,0.00,,OVC055,0.00,VWS V14.01,2013-02-15 00:52:00,
2013-02-14 19:57:00,38.7,32.8,30.07,WSW,252,0.0,2.0,79,0.00,,OVC055,0.00,VWS V14.01,2013-02-15 00:57:00,
2013-02-14 20:00:00,38.5,32.9,30.07,WSW,252,0.0,2.0,80,0.00,,OVC055,0.00,VWS V14.01,2013-02-15 01:00:00,
2013-02-14 20:02:00,38.1,32.8,30.07,WSW,252,0.0,0.0,81,0.00,,OVC055,0.00,VWS V14.01,2013-02-15 01:02:00,
2013-02-14 20:07:00,37.4,32.4,30.07,WSW,252,0.0,1.0,82,0.00,,OVC055,0.00,VWS V14.01,2013-02-15 01:07:00,
2013-02-14 20:12:00,36.9,31.6,30.07,WSW,252,0.0,1.0,81,0.00,,OVC055,0.00,VWS V14.01,2013-02-15 01:12:00,
2013-02-14 20:17:00,36.7,32.0,30.07,WSW,252,0.0,1.0,83,0.00,,OVC055,0.00,VWS V14.01,2013-02-15 01:17:00,
2013-02-14 20:22:00,36.5,31.8,30.08,WSW,252,0.0,1.0,83,0.00,,OVC055,0.00,VWS V14.01,2013-02-15 01:22:00,
2013-02-14 20:27:00,36.4,31.7,30.07,WSW,252,0.0,1.0,83,0.00,,OVC055,0.00,VWS V14.01,2013-02-15 01:27:00,
2013-02-14 20:30:00,36.4,31.7,30.07,WSW,252,0.0,1.0,83,0.00,,OVC055,0.00,VWS V14.01,2013-02-15 01:30:00,
2013-02-14 20:32:00,36.2,32.4,30.07,WSW,252,0.0,0.0,86,0.00,,OVC055,0.00,VWS V14.01,2013-02-15 01:32:00,
2013-02-14 20:37:00,35.9,31.8,30.08,WSW,252,0.0,0.0,85,0.00,,OVC055,0.00,VWS V14.01,2013-02-15 01:37:00,
2013-02-14 20:42:00,35.7,31.6,30.08,WSW,252,0.0,1.0,85,0.00,,OVC055,0.00,VWS V14.01,2013-02-15 01:42:00,
2013-02-14 20:47:00,35.5,31.5,30.08,WSW,252,0.0,1.0,85,0.00,,OVC055,0.00,VWS V14.01,2013-02-15 01:47:00,
2013-02-14 20:52:00,35.2,31.1,30.08,WSW,252,0.0,1.0,85,0.00,,OVC055,0.00,VWS V14.01,2013-02-15 01:52:00,
2013-02-14 20:57:00,34.8,31.0,30.08,WSW,252,0.0,1.0,86,0.00,,OVC055,0.00,VWS V14.01,2013-02-15 01:57:00,
2013-02-14 21:00:00,34.6,31.1,30.08,WSW,252,0.0,1.0,87,0.00,,OVC055,0.00,VWS V14.01,2013-02-15 02:00:00,
2013-02-14 21:02:00,34.3,30.8,30.09,WSW,252,1.0,1.0,87,0.00,,OVC055,0.00,VWS V14.01,2013-02-15 02:02:00,
2013-02-14 21:07:00,34.1,31.2,30.09,WSW,252,0.0,1.0,89,0.00,,OVC055,0.00,VWS V14.01,2013-02-15 02:07:00,
2013-02-14 21:12:00,34.0,30.8,30.10,WSW,252,0.0,1.0,88,0.00,,OVC055,0.00,VWS V14.01,2013-02-15 02:12:00,
2013-02-14 21:17:00,33.8,30.6,30.10,WSW,252,0.0,1.0,88,0.00,,OVC055,0.00,VWS V14.01,2013-02-15 02:17:00,
2013-02-14 21:22:00,33.6,30.4,30.10,WSW,252,0.0,1.0,88,0.00,,OVC055,0.00,VWS V14.01,2013-02-15 02:22:00,
2013-02-14 21:27:00,33.5,30.3,30.10,WSW,252,0.0,1.0,88,0.00,,OVC055,0.00,VWS V14.01,2013-02-15 02:27:00,
2013-02-14 21:30:00,33.3,30.4,30.10,WSW,252,2.0,2.0,89,0.00,,OVC055,0.00,VWS V14.01,2013-02-15 02:30:00,
2013-02-14 21:32:00,33.2,30.6,30.11,WSW,252,0.0,2.0,90,0.00,,OVC055,0.00,VWS V14.01,2013-02-15 02:32:00,
2013-02-14 21:37:00,33.0,30.4,30.10,WSW,252,2.0,2.0,90,0.00,,OVC055,0.00,VWS V14.01,2013-02-15 02:37:00,
2013-02-14 21:42:00,32.9,30.6,30.10,WSW,252,0.0,2.0,91,0.00,,OVC055,0.00,VWS V14.01,2013-02-15 02:42:00,
2013-02-14 21:47:00,32.5,29.9,30.10,WSW,252,1.0,2.0,90,0.00,,OVC055,0.00,VWS V14.01,2013-02-15 02:47:00,
2013-02-14 21:52:00,32.1,29.5,30.11,WNW,298,0.0,3.0,90,0.00,,OVC055,0.00,VWS V14.01,2013-02-15 02:52:00,
2013-02-14 21:57:00,31.7,29.4,30.11,WNW,298,1.0,3.0,91,0.00,,OVC055,0.00,VWS V14.01,2013-02-15 02:57:00,
2013-02-14 22:00:00,31.7,29.6,30.11,WNW,298,1.0,3.0,92,0.00,,OVC055,0.00,VWS V14.01,2013-02-15 03:00:00,
2013-02-14 22:02:00,31.9,30.1,30.11,WNW,298,0.0,1.0,93,0.00,,OVC055,0.00,VWS V14.01,2013-02-15 03:02:00,
2013-02-14 22:07:00,32.0,30.2,30.11,WNW,298,0.0,1.0,93,0.00,,OVC055,0.00,VWS V14.01,2013-02-15 03:07:00,
2013-02-14 22:12:00,31.9,29.8,30.11,WNW,298,0.0,1.0,92,0.00,,OVC055,0.00,VWS V14.01,2013-02-15 03:12:00,
2013-02-14 22:17:00,31.6,29.5,30.11,WNW,298,0.0,1.0,92,0.00,,OVC055,0.00,VWS V14.01,2013-02-15 03:17:00,
2013-02-14 22:22:00,31.5,29.5,30.11,WNW,298,0.0,1.0,92,0.00,,OVC055,0.00,VWS V14.01,2013-02-15 03:22:00,
2013-02-14 22:27:00,31.2,29.4,30.12,WNW,298,0.0,1.0,93,0.00,,OVC055,0.00,VWS V14.01,2013-02-15 03:27:00,
2013-02-14 22:30:00,31.1,29.3,30.12,WNW,298,0.0,1.0,93,0.00,,OVC055,0.00,VWS V14.01,2013-02-15 03:30:00,
2013-02-14 22:32:00,31.0,29.2,30.12,WNW,298,0.0,0.0,93,0.00,,OVC055,0.00,VWS V14.01,2013-02-15 03:32:00,
2013-02-14 22:37:00,30.9,29.1,30.12,WNW,298,0.0,1.0,93,0.00,,OVC055,0.00,VWS V14.01,2013-02-15 03:37:00,
2013-02-14 22:42:00,30.8,29.3,30.12,WNW,298,0.0,1.0,94,0.00,,OVC055,0.00,VWS V14.01,2013-02-15 03:42:00,
2013-02-14 22:47:00,30.8,29.3,30.12,WNW,298,0.0,1.0,94,0.00,,OVC055,0.00,VWS V14.01,2013-02-15 03:47:00,
2013-02-14 22:52:00,30.8,29.3,30.12,WNW,298,0.0,1.0,94,0.00,,OVC055,0.00,VWS V14.01,2013-02-15 03:52:00,
2013-02-14 22:57:00,30.7,29.2,30.12,WNW,298,0.0,1.0,94,0.00,,OVC055,0.00,VWS V14.01,2013-02-15 03:57:00,
2013-02-14 23:00:00,30.6,29.1,30.12,WNW,298,0.0,1.0,94,0.00,,OVC055,0.00,VWS V14.01,2013-02-15 04:00:00,
2013-02-14 23:02:00,30.5,29.0,30.12,WNW,298,0.0,0.0,94,0.00,,OVC055,0.00,VWS V14.01,2013-02-15 04:02:00,
2013-02-14 23:07:00,30.4,28.9,30.12,WNW,298,0.0,0.0,94,0.00,,OVC055,0.00,VWS V14.01,2013-02-15 04:07:00,
2013-02-14 23:12:00,30.2,28.7,30.13,WNW,298,0.0,0.0,94,0.00,,OVC055,0.00,VWS V14.01,2013-02-15 04:12:00,
2013-02-14 23:17:00,30.0,28.5,30.13,WNW,298,0.0,0.0,94,0.00,,OVC055,0.00,VWS V14.01,2013-02-15 04:17:00,
2013-02-14 23:22:00,29.9,28.6,30.13,WNW,298,0.0,0.0,95,0.00,,OVC055,0.00,VWS V14.01,2013-02-15 04:22:00,
2013-02-14 23:27:00,29.7,28.5,30.13,WNW,298,0.0,0.0,95,0.00,,OVC055,0.00,VWS V14.01,2013-02-15 04:27:00,
2013-02-14 23:30:00,29.7,28.5,30.13,WNW,298,0.0,0.0,95,0.00,,OVC055,0.00,VWS V14.01,2013-02-15 04:30:00,
2013-02-14 23:32:00,29.6,28.4,30.13,WNW,298,0.0,0.0,95,0.00,,OVC055,0.00,VWS V14.01,2013-02-15 04:32:00,
2013-02-14 23:37:00,29.6,28.4,30.13,WNW,298,0.0,0.0,95,0.00,,OVC055,0.00,VWS V14.01,2013-02-15 04:37:00,
2013-02-14 23:42:00,29.5,28.5,30.12,WNW,298,0.0,0.0,96,0.00,,OVC055,0.00,VWS V14.01,2013-02-15 04:42:00,
2013-02-14 23:47:00,29.4,28.4,30.12,WNW,298,0.0,0.0,96,0.00,,OVC055,0.00,VWS V14.01,2013-02-15 04:47:00,
2013-02-14 23:52:00,29.3,28.3,30.12,WNW,298,0.0,0.0,96,0.00,,OVC055,0.00,VWS V14.01,2013-02-15 04:52:00,
2013-02-14 23:57:00,29.2,28.2,30.13,WNW,298,0.0,0.0,96,0.00,,OVC055,0.00,VWS V14.01,2013-02-15 04:57:00,